sensor_id;sensor_type;location;lat;lon;timestamp;P1;durP1;ratioP1;P2;durP2;ratioP2
70953;SDS011;58618;47.490;8.736;2023-05-07T00:02:38;3.67;;;2.10;;
70953;SDS011;58618;47.490;8.736;2023-05-07T00:05:26;3.27;;;2.30;;
70953;SDS011;58618;47.490;8.736;2023-05-07T00:08:15;4.25;;;2.20;;
70953;SDS011;58618;47.490;8.736;2023-05-07T00:11:02;3.17;;;2.15;;
70953;SDS011;58618;47.490;8.736;2023-05-07T00:13:50;3.28;;;2.28;;
70953;SDS011;58618;47.490;8.736;2023-05-07T00:16:37;3.83;;;2.25;;
70953;SDS011;58618;47.490;8.736;2023-05-07T00:19:25;3.50;;;2.23;;
70953;SDS011;58618;47.490;8.736;2023-05-07T00:22:12;3.92;;;2.17;;
70953;SDS011;58618;47.490;8.736;2023-05-07T00:25:01;4.85;;;2.33;;
70953;SDS011;58618;47.490;8.736;2023-05-07T00:27:48;3.00;;;2.28;;
70953;SDS011;58618;47.490;8.736;2023-05-07T00:30:36;3.45;;;2.28;;
70953;SDS011;58618;47.490;8.736;2023-05-07T00:33:23;3.17;;;2.23;;
70953;SDS011;58618;47.490;8.736;2023-05-07T00:36:12;5.68;;;1.98;;
70953;SDS011;58618;47.490;8.736;2023-05-07T00:38:59;3.70;;;2.35;;
70953;SDS011;58618;47.490;8.736;2023-05-07T00:41:50;4.75;;;2.47;;
70953;SDS011;58618;47.490;8.736;2023-05-07T00:44:38;4.88;;;2.08;;
70953;SDS011;58618;47.490;8.736;2023-05-07T00:47:25;3.10;;;2.00;;
70953;SDS011;58618;47.490;8.736;2023-05-07T00:50:13;4.25;;;1.85;;
70953;SDS011;58618;47.490;8.736;2023-05-07T00:53:00;2.22;;;1.67;;
70953;SDS011;58618;47.490;8.736;2023-05-07T00:55:48;2.00;;;1.65;;
70953;SDS011;58618;47.490;8.736;2023-05-07T00:58:37;3.17;;;1.80;;
70953;SDS011;58618;47.490;8.736;2023-05-07T01:01:25;3.23;;;1.50;;
70953;SDS011;58618;47.490;8.736;2023-05-07T01:04:12;3.13;;;1.50;;
70953;SDS011;58618;47.490;8.736;2023-05-07T01:06:59;2.10;;;1.60;;
70953;SDS011;58618;47.490;8.736;2023-05-07T01:09:49;2.00;;;1.40;;
70953;SDS011;58618;47.490;8.736;2023-05-07T01:12:37;1.98;;;1.50;;
70953;SDS011;58618;47.490;8.736;2023-05-07T01:15:27;3.70;;;2.10;;
70953;SDS011;58618;47.490;8.736;2023-05-07T01:18:15;4.05;;;2.10;;
70953;SDS011;58618;47.490;8.736;2023-05-07T01:21:04;2.78;;;1.98;;
70953;SDS011;58618;47.490;8.736;2023-05-07T01:23:53;2.80;;;1.80;;
70953;SDS011;58618;47.490;8.736;2023-05-07T01:26:41;2.05;;;1.60;;
70953;SDS011;58618;47.490;8.736;2023-05-07T01:29:29;2.67;;;1.70;;
70953;SDS011;58618;47.490;8.736;2023-05-07T01:32:16;2.58;;;1.70;;
70953;SDS011;58618;47.490;8.736;2023-05-07T01:35:09;2.25;;;1.60;;
70953;SDS011;58618;47.490;8.736;2023-05-07T01:37:58;3.65;;;1.80;;
70953;SDS011;58618;47.490;8.736;2023-05-07T01:40:48;3.85;;;1.95;;
70953;SDS011;58618;47.490;8.736;2023-05-07T01:43:35;3.97;;;2.07;;
70953;SDS011;58618;47.490;8.736;2023-05-07T01:46:23;2.92;;;2.20;;
70953;SDS011;58618;47.490;8.736;2023-05-07T01:49:12;3.45;;;2.00;;
70953;SDS011;58618;47.490;8.736;2023-05-07T01:52:00;3.38;;;2.10;;
70953;SDS011;58618;47.490;8.736;2023-05-07T01:54:47;3.88;;;1.73;;
70953;SDS011;58618;47.490;8.736;2023-05-07T01:57:36;4.20;;;1.80;;
70953;SDS011;58618;47.490;8.736;2023-05-07T02:00:23;2.50;;;1.80;;
70953;SDS011;58618;47.490;8.736;2023-05-07T02:03:11;2.92;;;1.88;;
70953;SDS011;58618;47.490;8.736;2023-05-07T02:05:58;2.45;;;1.70;;
70953;SDS011;58618;47.490;8.736;2023-05-07T02:08:46;2.50;;;1.92;;
70953;SDS011;58618;47.490;8.736;2023-05-07T02:11:34;4.30;;;2.30;;
70953;SDS011;58618;47.490;8.736;2023-05-07T02:14:22;2.58;;;1.88;;
70953;SDS011;58618;47.490;8.736;2023-05-07T02:17:10;2.88;;;2.10;;
70953;SDS011;58618;47.490;8.736;2023-05-07T02:19:58;3.30;;;2.05;;
70953;SDS011;58618;47.490;8.736;2023-05-07T02:22:45;4.40;;;2.20;;
70953;SDS011;58618;47.490;8.736;2023-05-07T02:25:32;7.23;;;2.03;;
70953;SDS011;58618;47.490;8.736;2023-05-07T02:28:20;2.45;;;1.70;;
70953;SDS011;58618;47.490;8.736;2023-05-07T02:31:08;2.20;;;1.55;;
70953;SDS011;58618;47.490;8.736;2023-05-07T02:33:56;2.97;;;1.60;;
70953;SDS011;58618;47.490;8.736;2023-05-07T02:36:43;2.70;;;1.90;;
70953;SDS011;58618;47.490;8.736;2023-05-07T02:39:31;3.43;;;1.60;;
70953;SDS011;58618;47.490;8.736;2023-05-07T02:42:18;3.03;;;1.92;;
70953;SDS011;58618;47.490;8.736;2023-05-07T02:45:06;3.30;;;1.67;;
70953;SDS011;58618;47.490;8.736;2023-05-07T02:47:56;2.40;;;1.70;;
70953;SDS011;58618;47.490;8.736;2023-05-07T02:50:43;3.92;;;1.77;;
70953;SDS011;58618;47.490;8.736;2023-05-07T02:53:30;2.80;;;1.77;;
70953;SDS011;58618;47.490;8.736;2023-05-07T02:56:18;3.08;;;2.20;;
70953;SDS011;58618;47.490;8.736;2023-05-07T02:59:05;3.45;;;1.80;;
70953;SDS011;58618;47.490;8.736;2023-05-07T03:01:53;2.78;;;1.90;;
70953;SDS011;58618;47.490;8.736;2023-05-07T03:04:41;3.13;;;1.90;;
70953;SDS011;58618;47.490;8.736;2023-05-07T03:07:29;4.93;;;2.30;;
70953;SDS011;58618;47.490;8.736;2023-05-07T03:10:16;3.65;;;2.10;;
70953;SDS011;58618;47.490;8.736;2023-05-07T03:13:04;3.47;;;2.08;;
70953;SDS011;58618;47.490;8.736;2023-05-07T03:15:51;2.88;;;2.00;;
70953;SDS011;58618;47.490;8.736;2023-05-07T03:18:39;3.47;;;1.80;;
70953;SDS011;58618;47.490;8.736;2023-05-07T03:21:27;3.00;;;1.83;;
70953;SDS011;58618;47.490;8.736;2023-05-07T03:24:15;3.22;;;2.00;;
70953;SDS011;58618;47.490;8.736;2023-05-07T03:27:02;2.85;;;1.73;;
70953;SDS011;58618;47.490;8.736;2023-05-07T03:29:50;4.10;;;1.90;;
70953;SDS011;58618;47.490;8.736;2023-05-07T03:32:37;2.55;;;1.80;;
70953;SDS011;58618;47.490;8.736;2023-05-07T03:35:24;3.17;;;1.90;;
70953;SDS011;58618;47.490;8.736;2023-05-07T03:38:13;2.28;;;1.67;;
70953;SDS011;58618;47.490;8.736;2023-05-07T03:41:01;2.60;;;1.83;;
70953;SDS011;58618;47.490;8.736;2023-05-07T03:43:48;3.08;;;2.00;;
70953;SDS011;58618;47.490;8.736;2023-05-07T03:46:35;2.65;;;1.75;;
70953;SDS011;58618;47.490;8.736;2023-05-07T03:49:23;5.00;;;1.73;;
70953;SDS011;58618;47.490;8.736;2023-05-07T03:52:10;2.28;;;1.67;;
70953;SDS011;58618;47.490;8.736;2023-05-07T03:55:00;3.03;;;1.90;;
70953;SDS011;58618;47.490;8.736;2023-05-07T03:57:47;2.65;;;2.03;;
70953;SDS011;58618;47.490;8.736;2023-05-07T04:00:35;3.00;;;1.88;;
70953;SDS011;58618;47.490;8.736;2023-05-07T04:03:24;6.53;;;2.00;;
70953;SDS011;58618;47.490;8.736;2023-05-07T04:06:11;2.78;;;1.95;;
70953;SDS011;58618;47.490;8.736;2023-05-07T04:08:58;2.95;;;2.13;;
70953;SDS011;58618;47.490;8.736;2023-05-07T04:11:47;3.55;;;1.98;;
70953;SDS011;58618;47.490;8.736;2023-05-07T04:14:35;4.32;;;2.03;;
70953;SDS011;58618;47.490;8.736;2023-05-07T04:17:22;3.23;;;2.30;;
70953;SDS011;58618;47.490;8.736;2023-05-07T04:20:10;2.55;;;1.75;;
70953;SDS011;58618;47.490;8.736;2023-05-07T04:23:01;3.92;;;2.60;;
70953;SDS011;58618;47.490;8.736;2023-05-07T04:25:48;4.70;;;2.15;;
70953;SDS011;58618;47.490;8.736;2023-05-07T04:28:38;3.38;;;2.28;;
70953;SDS011;58618;47.490;8.736;2023-05-07T04:31:26;3.03;;;2.10;;
70953;SDS011;58618;47.490;8.736;2023-05-07T04:34:13;3.53;;;2.25;;
70953;SDS011;58618;47.490;8.736;2023-05-07T04:37:00;3.33;;;2.20;;
70953;SDS011;58618;47.490;8.736;2023-05-07T04:39:49;3.28;;;2.00;;
70953;SDS011;58618;47.490;8.736;2023-05-07T04:42:36;4.45;;;1.77;;
70953;SDS011;58618;47.490;8.736;2023-05-07T04:45:25;2.77;;;2.00;;
70953;SDS011;58618;47.490;8.736;2023-05-07T04:48:12;2.75;;;1.88;;
70953;SDS011;58618;47.490;8.736;2023-05-07T04:51:01;3.25;;;1.90;;
70953;SDS011;58618;47.490;8.736;2023-05-07T04:53:49;4.20;;;2.08;;
70953;SDS011;58618;47.490;8.736;2023-05-07T04:56:36;4.13;;;2.00;;
70953;SDS011;58618;47.490;8.736;2023-05-07T04:59:24;2.60;;;2.00;;
70953;SDS011;58618;47.490;8.736;2023-05-07T05:02:13;2.97;;;2.03;;
70953;SDS011;58618;47.490;8.736;2023-05-07T05:05:00;1.92;;;1.38;;
70953;SDS011;58618;47.490;8.736;2023-05-07T05:07:48;2.28;;;1.80;;
70953;SDS011;58618;47.490;8.736;2023-05-07T05:10:37;3.47;;;1.95;;
70953;SDS011;58618;47.490;8.736;2023-05-07T05:13:24;2.37;;;1.50;;
70953;SDS011;58618;47.490;8.736;2023-05-07T05:16:11;3.28;;;1.40;;
70953;SDS011;58618;47.490;8.736;2023-05-07T05:19:01;3.40;;;1.70;;
70953;SDS011;58618;47.490;8.736;2023-05-07T05:21:49;3.30;;;1.90;;
70953;SDS011;58618;47.490;8.736;2023-05-07T05:24:36;2.75;;;1.80;;
70953;SDS011;58618;47.490;8.736;2023-05-07T05:27:23;2.77;;;1.80;;
70953;SDS011;58618;47.490;8.736;2023-05-07T05:30:11;3.22;;;1.50;;
70953;SDS011;58618;47.490;8.736;2023-05-07T05:32:59;3.00;;;1.67;;
70953;SDS011;58618;47.490;8.736;2023-05-07T05:35:49;2.42;;;1.80;;
70953;SDS011;58618;47.490;8.736;2023-05-07T05:38:36;3.00;;;1.85;;
70953;SDS011;58618;47.490;8.736;2023-05-07T05:41:23;2.33;;;1.80;;
70953;SDS011;58618;47.490;8.736;2023-05-07T05:44:12;2.75;;;1.52;;
70953;SDS011;58618;47.490;8.736;2023-05-07T05:46:59;3.05;;;1.85;;
70953;SDS011;58618;47.490;8.736;2023-05-07T05:49:47;3.25;;;1.95;;
70953;SDS011;58618;47.490;8.736;2023-05-07T05:52:35;1.80;;;1.60;;
70953;SDS011;58618;47.490;8.736;2023-05-07T05:55:23;2.20;;;1.70;;
70953;SDS011;58618;47.490;8.736;2023-05-07T05:58:10;5.00;;;2.15;;
70953;SDS011;58618;47.490;8.736;2023-05-07T06:00:58;2.80;;;1.90;;
70953;SDS011;58618;47.490;8.736;2023-05-07T06:03:45;2.40;;;2.13;;
70953;SDS011;58618;47.490;8.736;2023-05-07T06:06:32;3.03;;;1.75;;
70953;SDS011;58618;47.490;8.736;2023-05-07T06:09:21;2.90;;;2.30;;
70953;SDS011;58618;47.490;8.736;2023-05-07T06:12:08;2.85;;;1.80;;
70953;SDS011;58618;47.490;8.736;2023-05-07T06:14:55;3.42;;;1.77;;
70953;SDS011;58618;47.490;8.736;2023-05-07T06:17:43;2.90;;;2.13;;
70953;SDS011;58618;47.490;8.736;2023-05-07T06:20:30;7.47;;;2.10;;
70953;SDS011;58618;47.490;8.736;2023-05-07T06:23:17;4.97;;;2.40;;
70953;SDS011;58618;47.490;8.736;2023-05-07T06:26:06;2.08;;;1.80;;
70953;SDS011;58618;47.490;8.736;2023-05-07T06:28:54;3.30;;;2.10;;
70953;SDS011;58618;47.490;8.736;2023-05-07T06:31:41;2.38;;;1.85;;
70953;SDS011;58618;47.490;8.736;2023-05-07T06:34:28;3.42;;;2.00;;
70953;SDS011;58618;47.490;8.736;2023-05-07T06:37:16;2.17;;;1.90;;
70953;SDS011;58618;47.490;8.736;2023-05-07T06:40:04;2.67;;;2.00;;
70953;SDS011;58618;47.490;8.736;2023-05-07T06:42:54;4.38;;;2.53;;
70953;SDS011;58618;47.490;8.736;2023-05-07T06:45:41;3.88;;;2.67;;
70953;SDS011;58618;47.490;8.736;2023-05-07T06:48:28;3.60;;;2.10;;
70953;SDS011;58618;47.490;8.736;2023-05-07T06:51:16;3.70;;;2.10;;
70953;SDS011;58618;47.490;8.736;2023-05-07T06:54:03;3.50;;;2.05;;
70953;SDS011;58618;47.490;8.736;2023-05-07T06:56:51;2.50;;;1.80;;
70953;SDS011;58618;47.490;8.736;2023-05-07T06:59:39;2.10;;;1.55;;
70953;SDS011;58618;47.490;8.736;2023-05-07T07:02:27;2.20;;;1.55;;
70953;SDS011;58618;47.490;8.736;2023-05-07T07:05:14;3.73;;;1.80;;
70953;SDS011;58618;47.490;8.736;2023-05-07T07:08:01;2.65;;;1.65;;
70953;SDS011;58618;47.490;8.736;2023-05-07T07:10:49;2.58;;;1.73;;
70953;SDS011;58618;47.490;8.736;2023-05-07T07:13:36;3.45;;;1.50;;
70953;SDS011;58618;47.490;8.736;2023-05-07T07:16:25;3.45;;;1.83;;
70953;SDS011;58618;47.490;8.736;2023-05-07T07:19:13;2.03;;;1.47;;
70953;SDS011;58618;47.490;8.736;2023-05-07T07:22:01;3.00;;;1.52;;
70953;SDS011;58618;47.490;8.736;2023-05-07T07:24:49;3.70;;;1.50;;
70953;SDS011;58618;47.490;8.736;2023-05-07T07:27:36;2.97;;;1.58;;
70953;SDS011;58618;47.490;8.736;2023-05-07T07:30:25;2.17;;;1.60;;
70953;SDS011;58618;47.490;8.736;2023-05-07T07:33:14;3.77;;;1.70;;
70953;SDS011;58618;47.490;8.736;2023-05-07T07:36:02;2.22;;;1.80;;
70953;SDS011;58618;47.490;8.736;2023-05-07T07:38:49;4.43;;;1.67;;
70953;SDS011;58618;47.490;8.736;2023-05-07T07:41:37;2.13;;;1.77;;
70953;SDS011;58618;47.490;8.736;2023-05-07T07:44:24;3.05;;;1.65;;
70953;SDS011;58618;47.490;8.736;2023-05-07T07:47:11;1.90;;;1.70;;
70953;SDS011;58618;47.490;8.736;2023-05-07T07:50:00;1.80;;;1.42;;
70953;SDS011;58618;47.490;8.736;2023-05-07T07:52:47;1.90;;;1.50;;
70953;SDS011;58618;47.490;8.736;2023-05-07T07:55:37;1.58;;;1.27;;
70953;SDS011;58618;47.490;8.736;2023-05-07T07:58:25;2.45;;;1.90;;
70953;SDS011;58618;47.490;8.736;2023-05-07T08:03:53;2.60;;;1.50;;
70953;SDS011;58618;47.490;8.736;2023-05-07T08:06:42;2.28;;;1.60;;
70953;SDS011;58618;47.490;8.736;2023-05-07T08:09:29;1.50;;;1.30;;
70953;SDS011;58618;47.490;8.736;2023-05-07T08:12:17;2.13;;;1.50;;
70953;SDS011;58618;47.490;8.736;2023-05-07T08:15:05;1.97;;;1.40;;
70953;SDS011;58618;47.490;8.736;2023-05-07T08:17:53;3.17;;;1.67;;
70953;SDS011;58618;47.490;8.736;2023-05-07T08:20:41;2.00;;;1.33;;
70953;SDS011;58618;47.490;8.736;2023-05-07T08:23:30;3.33;;;1.58;;
70953;SDS011;58618;47.490;8.736;2023-05-07T08:26:18;1.58;;;1.20;;
70953;SDS011;58618;47.490;8.736;2023-05-07T08:29:06;2.13;;;1.50;;
70953;SDS011;58618;47.490;8.736;2023-05-07T08:31:53;2.15;;;1.50;;
70953;SDS011;58618;47.490;8.736;2023-05-07T08:34:41;2.08;;;1.52;;
70953;SDS011;58618;47.490;8.736;2023-05-07T08:37:28;2.78;;;1.60;;
70953;SDS011;58618;47.490;8.736;2023-05-07T08:40:17;2.05;;;1.63;;
70953;SDS011;58618;47.490;8.736;2023-05-07T08:43:05;2.73;;;1.60;;
70953;SDS011;58618;47.490;8.736;2023-05-07T08:45:53;3.08;;;1.63;;
70953;SDS011;58618;47.490;8.736;2023-05-07T08:48:42;1.98;;;1.77;;
70953;SDS011;58618;47.490;8.736;2023-05-07T08:51:29;2.47;;;1.63;;
70953;SDS011;58618;47.490;8.736;2023-05-07T08:54:17;2.33;;;1.40;;
70953;SDS011;58618;47.490;8.736;2023-05-07T08:57:07;2.90;;;1.40;;
70953;SDS011;58618;47.490;8.736;2023-05-07T08:59:54;1.70;;;1.58;;
70953;SDS011;58618;47.490;8.736;2023-05-07T09:02:42;2.60;;;1.65;;
70953;SDS011;58618;47.490;8.736;2023-05-07T09:05:29;2.38;;;1.80;;
70953;SDS011;58618;47.490;8.736;2023-05-07T09:08:16;2.10;;;1.60;;
70953;SDS011;58618;47.490;8.736;2023-05-07T09:11:04;3.37;;;1.60;;
70953;SDS011;58618;47.490;8.736;2023-05-07T09:13:54;2.40;;;1.70;;
70953;SDS011;58618;47.490;8.736;2023-05-07T09:16:43;2.10;;;1.60;;
70953;SDS011;58618;47.490;8.736;2023-05-07T09:19:31;3.03;;;2.00;;
70953;SDS011;58618;47.490;8.736;2023-05-07T09:22:18;4.22;;;1.83;;
70953;SDS011;58618;47.490;8.736;2023-05-07T09:25:06;2.20;;;1.70;;
70953;SDS011;58618;47.490;8.736;2023-05-07T09:27:54;2.60;;;2.00;;
70953;SDS011;58618;47.490;8.736;2023-05-07T09:30:43;3.72;;;2.10;;
70953;SDS011;58618;47.490;8.736;2023-05-07T09:33:31;2.75;;;2.00;;
70953;SDS011;58618;47.490;8.736;2023-05-07T09:36:18;2.80;;;2.03;;
70953;SDS011;58618;47.490;8.736;2023-05-07T09:39:06;3.00;;;2.07;;
70953;SDS011;58618;47.490;8.736;2023-05-07T09:41:53;3.63;;;2.20;;
70953;SDS011;58618;47.490;8.736;2023-05-07T09:44:41;3.78;;;2.30;;
70953;SDS011;58618;47.490;8.736;2023-05-07T09:47:32;3.25;;;2.20;;
70953;SDS011;58618;47.490;8.736;2023-05-07T09:50:19;3.40;;;2.03;;
70953;SDS011;58618;47.490;8.736;2023-05-07T09:53:08;2.70;;;2.00;;
70953;SDS011;58618;47.490;8.736;2023-05-07T09:55:57;3.40;;;2.50;;
70953;SDS011;58618;47.490;8.736;2023-05-07T09:58:45;3.78;;;1.88;;
70953;SDS011;58618;47.490;8.736;2023-05-07T10:01:35;4.95;;;2.20;;
70953;SDS011;58618;47.490;8.736;2023-05-07T10:04:24;2.90;;;2.20;;
70953;SDS011;58618;47.490;8.736;2023-05-07T10:07:13;3.10;;;2.50;;
70953;SDS011;58618;47.490;8.736;2023-05-07T10:10:01;6.72;;;3.67;;
70953;SDS011;58618;47.490;8.736;2023-05-07T10:12:49;3.08;;;2.30;;
70953;SDS011;58618;47.490;8.736;2023-05-07T10:15:38;2.70;;;1.98;;
70953;SDS011;58618;47.490;8.736;2023-05-07T10:18:26;2.88;;;2.38;;
70953;SDS011;58618;47.490;8.736;2023-05-07T10:21:17;2.70;;;2.10;;
70953;SDS011;58618;47.490;8.736;2023-05-07T10:24:06;4.35;;;2.22;;
70953;SDS011;58618;47.490;8.736;2023-05-07T10:27:00;3.88;;;2.60;;
70953;SDS011;58618;47.490;8.736;2023-05-07T10:29:50;3.95;;;2.42;;
70953;SDS011;58618;47.490;8.736;2023-05-07T10:32:45;2.40;;;1.88;;
70953;SDS011;58618;47.490;8.736;2023-05-07T10:35:37;2.40;;;2.10;;
70953;SDS011;58618;47.490;8.736;2023-05-07T10:38:28;2.50;;;2.03;;
70953;SDS011;58618;47.490;8.736;2023-05-07T10:41:16;6.13;;;2.10;;
70953;SDS011;58618;47.490;8.736;2023-05-07T10:44:04;3.17;;;2.00;;
70953;SDS011;58618;47.490;8.736;2023-05-07T10:47:05;4.30;;;2.20;;
70953;SDS011;58618;47.490;8.736;2023-05-07T10:53:20;2.28;;;2.00;;
70953;SDS011;58618;47.490;8.736;2023-05-07T10:56:25;3.45;;;2.40;;
70953;SDS011;58618;47.490;8.736;2023-05-07T11:05:47;2.93;;;2.40;;
70953;SDS011;58618;47.490;8.736;2023-05-07T11:11:47;4.80;;;2.70;;
70953;SDS011;58618;47.490;8.736;2023-05-07T11:14:43;2.67;;;2.10;;
70953;SDS011;58618;47.490;8.736;2023-05-07T11:17:30;4.10;;;2.50;;
70953;SDS011;58618;47.490;8.736;2023-05-07T11:20:20;2.43;;;2.13;;
70953;SDS011;58618;47.490;8.736;2023-05-07T11:23:07;3.50;;;2.30;;
70953;SDS011;58618;47.490;8.736;2023-05-07T11:25:57;2.97;;;2.50;;
70953;SDS011;58618;47.490;8.736;2023-05-07T11:28:47;2.38;;;2.05;;
70953;SDS011;58618;47.490;8.736;2023-05-07T11:31:35;3.97;;;2.30;;
70953;SDS011;58618;47.490;8.736;2023-05-07T11:34:24;3.53;;;2.40;;
70953;SDS011;58618;47.490;8.736;2023-05-07T11:37:16;2.55;;;2.22;;
70953;SDS011;58618;47.490;8.736;2023-05-07T11:40:04;3.22;;;2.28;;
70953;SDS011;58618;47.490;8.736;2023-05-07T11:42:52;5.28;;;2.78;;
70953;SDS011;58618;47.490;8.736;2023-05-07T11:45:41;3.00;;;2.58;;
70953;SDS011;58618;47.490;8.736;2023-05-07T11:48:28;2.47;;;2.27;;
70953;SDS011;58618;47.490;8.736;2023-05-07T11:51:18;5.72;;;2.55;;
70953;SDS011;58618;47.490;8.736;2023-05-07T11:54:07;2.60;;;2.30;;
70953;SDS011;58618;47.490;8.736;2023-05-07T11:56:57;5.40;;;2.58;;
70953;SDS011;58618;47.490;8.736;2023-05-07T11:59:45;3.50;;;2.50;;
70953;SDS011;58618;47.490;8.736;2023-05-07T12:02:40;2.70;;;2.20;;
70953;SDS011;58618;47.490;8.736;2023-05-07T12:05:28;4.18;;;2.40;;
70953;SDS011;58618;47.490;8.736;2023-05-07T12:08:17;4.50;;;2.55;;
70953;SDS011;58618;47.490;8.736;2023-05-07T12:11:09;3.10;;;2.10;;
70953;SDS011;58618;47.490;8.736;2023-05-07T12:13:59;2.75;;;2.20;;
70953;SDS011;58618;47.490;8.736;2023-05-07T12:16:46;4.40;;;2.77;;
70953;SDS011;58618;47.490;8.736;2023-05-07T12:19:36;2.75;;;2.30;;
70953;SDS011;58618;47.490;8.736;2023-05-07T12:22:24;4.55;;;2.47;;
70953;SDS011;58618;47.490;8.736;2023-05-07T12:25:12;3.47;;;2.50;;
70953;SDS011;58618;47.490;8.736;2023-05-07T12:28:05;2.88;;;2.58;;
70953;SDS011;58618;47.490;8.736;2023-05-07T12:30:53;3.93;;;2.77;;
70953;SDS011;58618;47.490;8.736;2023-05-07T12:33:40;3.63;;;2.80;;
70953;SDS011;58618;47.490;8.736;2023-05-07T12:36:37;4.05;;;2.63;;
70953;SDS011;58618;47.490;8.736;2023-05-07T12:39:25;4.28;;;2.80;;
70953;SDS011;58618;47.490;8.736;2023-05-07T12:42:14;3.67;;;2.50;;
70953;SDS011;58618;47.490;8.736;2023-05-07T12:45:07;2.90;;;2.30;;
70953;SDS011;58618;47.490;8.736;2023-05-07T12:47:55;2.90;;;2.50;;
70953;SDS011;58618;47.490;8.736;2023-05-07T12:50:49;3.53;;;2.50;;
70953;SDS011;58618;47.490;8.736;2023-05-07T12:53:40;4.97;;;2.63;;
70953;SDS011;58618;47.490;8.736;2023-05-07T12:56:30;3.97;;;2.38;;
70953;SDS011;58618;47.490;8.736;2023-05-07T12:59:18;3.00;;;2.37;;
70953;SDS011;58618;47.490;8.736;2023-05-07T13:02:06;4.90;;;2.80;;
70953;SDS011;58618;47.490;8.736;2023-05-07T13:04:54;4.00;;;2.45;;
70953;SDS011;58618;47.490;8.736;2023-05-07T13:07:52;3.28;;;2.50;;
70953;SDS011;58618;47.490;8.736;2023-05-07T13:10:42;3.00;;;2.40;;
70953;SDS011;58618;47.490;8.736;2023-05-07T13:13:29;3.10;;;2.40;;
70953;SDS011;58618;47.490;8.736;2023-05-07T13:16:17;3.40;;;2.40;;
70953;SDS011;58618;47.490;8.736;2023-05-07T13:19:05;2.47;;;2.28;;
70953;SDS011;58618;47.490;8.736;2023-05-07T13:21:53;4.25;;;2.47;;
70953;SDS011;58618;47.490;8.736;2023-05-07T13:24:40;2.97;;;2.22;;
70953;SDS011;58618;47.490;8.736;2023-05-07T13:27:31;4.47;;;2.60;;
70953;SDS011;58618;47.490;8.736;2023-05-07T13:30:21;3.58;;;2.75;;
70953;SDS011;58618;47.490;8.736;2023-05-07T13:33:09;3.85;;;2.42;;
70953;SDS011;58618;47.490;8.736;2023-05-07T13:35:57;3.67;;;2.60;;
70953;SDS011;58618;47.490;8.736;2023-05-07T13:38:46;3.88;;;2.83;;
70953;SDS011;58618;47.490;8.736;2023-05-07T13:41:34;4.57;;;3.03;;
70953;SDS011;58618;47.490;8.736;2023-05-07T13:44:23;4.32;;;3.00;;
70953;SDS011;58618;47.490;8.736;2023-05-07T13:47:11;3.30;;;2.67;;
70953;SDS011;58618;47.490;8.736;2023-05-07T13:49:59;4.53;;;2.72;;
70953;SDS011;58618;47.490;8.736;2023-05-07T13:52:47;4.15;;;2.65;;
70953;SDS011;58618;47.490;8.736;2023-05-07T13:55:36;4.43;;;2.40;;
70953;SDS011;58618;47.490;8.736;2023-05-07T13:58:25;3.35;;;2.47;;
70953;SDS011;58618;47.490;8.736;2023-05-07T14:01:15;4.32;;;2.35;;
70953;SDS011;58618;47.490;8.736;2023-05-07T14:04:03;3.13;;;2.45;;
70953;SDS011;58618;47.490;8.736;2023-05-07T14:06:51;4.10;;;2.70;;
70953;SDS011;58618;47.490;8.736;2023-05-07T14:09:39;2.50;;;2.27;;
70953;SDS011;58618;47.490;8.736;2023-05-07T14:12:31;2.63;;;2.10;;
70953;SDS011;58618;47.490;8.736;2023-05-07T14:15:20;4.18;;;2.15;;
70953;SDS011;58618;47.490;8.736;2023-05-07T14:18:09;5.60;;;2.30;;
70953;SDS011;58618;47.490;8.736;2023-05-07T14:20:57;2.80;;;2.40;;
70953;SDS011;58618;47.490;8.736;2023-05-07T14:23:45;3.40;;;2.10;;
70953;SDS011;58618;47.490;8.736;2023-05-07T14:26:33;3.90;;;2.40;;
70953;SDS011;58618;47.490;8.736;2023-05-07T14:29:21;3.13;;;2.20;;
70953;SDS011;58618;47.490;8.736;2023-05-07T14:32:09;2.70;;;2.42;;
70953;SDS011;58618;47.490;8.736;2023-05-07T14:34:59;2.42;;;2.20;;
70953;SDS011;58618;47.490;8.736;2023-05-07T14:37:48;4.07;;;2.20;;
70953;SDS011;58618;47.490;8.736;2023-05-07T14:40:36;3.50;;;2.60;;
70953;SDS011;58618;47.490;8.736;2023-05-07T14:43:24;3.83;;;2.50;;
70953;SDS011;58618;47.490;8.736;2023-05-07T14:46:12;3.22;;;2.38;;
70953;SDS011;58618;47.490;8.736;2023-05-07T14:49:01;3.33;;;2.33;;
70953;SDS011;58618;47.490;8.736;2023-05-07T14:51:52;3.13;;;2.43;;
70953;SDS011;58618;47.490;8.736;2023-05-07T14:54:40;3.30;;;2.17;;
70953;SDS011;58618;47.490;8.736;2023-05-07T14:57:28;2.72;;;1.90;;
70953;SDS011;58618;47.490;8.736;2023-05-07T15:00:18;3.83;;;2.25;;
70953;SDS011;58618;47.490;8.736;2023-05-07T15:03:07;3.35;;;2.33;;
70953;SDS011;58618;47.490;8.736;2023-05-07T15:05:56;2.83;;;2.30;;
70953;SDS011;58618;47.490;8.736;2023-05-07T15:08:47;3.30;;;2.10;;
70953;SDS011;58618;47.490;8.736;2023-05-07T15:11:35;2.83;;;2.53;;
70953;SDS011;58618;47.490;8.736;2023-05-07T15:14:23;3.60;;;2.40;;
70953;SDS011;58618;47.490;8.736;2023-05-07T15:17:11;2.65;;;2.22;;
70953;SDS011;58618;47.490;8.736;2023-05-07T15:20:00;3.30;;;2.37;;
70953;SDS011;58618;47.490;8.736;2023-05-07T15:22:50;2.55;;;2.25;;
70953;SDS011;58618;47.490;8.736;2023-05-07T15:25:39;3.17;;;2.40;;
70953;SDS011;58618;47.490;8.736;2023-05-07T15:28:28;3.65;;;2.40;;
70953;SDS011;58618;47.490;8.736;2023-05-07T15:31:16;4.38;;;2.40;;
70953;SDS011;58618;47.490;8.736;2023-05-07T15:34:04;4.00;;;2.30;;
70953;SDS011;58618;47.490;8.736;2023-05-07T15:36:52;3.80;;;2.30;;
70953;SDS011;58618;47.490;8.736;2023-05-07T15:39:43;3.20;;;2.47;;
70953;SDS011;58618;47.490;8.736;2023-05-07T15:42:34;3.47;;;2.10;;
70953;SDS011;58618;47.490;8.736;2023-05-07T15:45:23;5.13;;;2.35;;
70953;SDS011;58618;47.490;8.736;2023-05-07T15:48:11;2.90;;;2.30;;
70953;SDS011;58618;47.490;8.736;2023-05-07T15:51:00;3.40;;;2.47;;
70953;SDS011;58618;47.490;8.736;2023-05-07T15:53:48;3.70;;;2.67;;
70953;SDS011;58618;47.490;8.736;2023-05-07T15:56:37;3.38;;;2.30;;
70953;SDS011;58618;47.490;8.736;2023-05-07T15:59:26;3.97;;;2.20;;
70953;SDS011;58618;47.490;8.736;2023-05-07T16:02:15;3.40;;;2.30;;
70953;SDS011;58618;47.490;8.736;2023-05-07T16:05:03;3.28;;;2.25;;
70953;SDS011;58618;47.490;8.736;2023-05-07T16:07:53;3.10;;;2.30;;
70953;SDS011;58618;47.490;8.736;2023-05-07T16:10:42;2.88;;;2.25;;
70953;SDS011;58618;47.490;8.736;2023-05-07T16:13:30;3.40;;;2.22;;
70953;SDS011;58618;47.490;8.736;2023-05-07T16:16:19;2.93;;;2.40;;
70953;SDS011;58618;47.490;8.736;2023-05-07T16:19:07;3.67;;;2.38;;
70953;SDS011;58618;47.490;8.736;2023-05-07T16:21:55;3.15;;;2.30;;
70953;SDS011;58618;47.490;8.736;2023-05-07T16:24:43;4.45;;;2.05;;
70953;SDS011;58618;47.490;8.736;2023-05-07T16:27:31;2.72;;;2.15;;
70953;SDS011;58618;47.490;8.736;2023-05-07T16:30:19;6.80;;;2.40;;
70953;SDS011;58618;47.490;8.736;2023-05-07T16:33:09;2.95;;;2.10;;
70953;SDS011;58618;47.490;8.736;2023-05-07T16:35:57;3.25;;;2.30;;
70953;SDS011;58618;47.490;8.736;2023-05-07T16:38:45;2.70;;;1.75;;
70953;SDS011;58618;47.490;8.736;2023-05-07T16:41:34;2.47;;;1.90;;
70953;SDS011;58618;47.490;8.736;2023-05-07T16:44:22;3.00;;;2.03;;
70953;SDS011;58618;47.490;8.736;2023-05-07T16:47:09;2.88;;;2.20;;
70953;SDS011;58618;47.490;8.736;2023-05-07T16:49:58;2.95;;;2.28;;
70953;SDS011;58618;47.490;8.736;2023-05-07T16:52:46;4.22;;;2.58;;
70953;SDS011;58618;47.490;8.736;2023-05-07T16:55:35;3.47;;;2.42;;
70953;SDS011;58618;47.490;8.736;2023-05-07T16:58:23;4.43;;;2.80;;
70953;SDS011;58618;47.490;8.736;2023-05-07T17:01:12;3.50;;;2.50;;
70953;SDS011;58618;47.490;8.736;2023-05-07T17:04:00;4.22;;;2.67;;
70953;SDS011;58618;47.490;8.736;2023-05-07T17:06:49;3.80;;;2.67;;
70953;SDS011;58618;47.490;8.736;2023-05-07T17:09:37;3.25;;;2.50;;
70953;SDS011;58618;47.490;8.736;2023-05-07T17:12:24;4.17;;;2.60;;